Time;durP1;ratioP1;P1;durP2;ratioP2;P2;SDS_P1;SDS_P2;PMS_P1;PMS_P2;Temp;Humidity;BMP_temperature;BMP_pressure;BME280_temperature;BME280_humidity;BME280_pressure;Samples;Min_cycle;Max_cycle;Signal;HPM_P1;HPM_P2
2021/08/09 00:01:51;;;;;;;1999.90;999.90;;;17.10;99.90;;;;;;5013181;28;20307;-69
2021/08/09 00:04:16;;;;;;;1999.90;999.90;;;17.10;99.90;;;;;;5012948;28;20196;-69
2021/08/09 00:06:42;;;;;;;1999.90;999.90;;;17.00;99.90;;;;;;5013277;28;20599;-69
2021/08/09 00:09:08;;;;;;;1999.90;999.90;;;16.90;99.90;;;;;;5013266;28;20181;-69
2021/08/09 00:11:34;;;;;;;1999.90;999.90;;;16.90;99.90;;;;;;5013202;28;20173;-69
2021/08/09 00:13:59;;;;;;;1999.90;999.90;;;16.80;99.90;;;;;;5012658;28;20688;-69
2021/08/09 00:16:25;;;;;;;1999.90;999.90;;;16.80;99.90;;;;;;5013175;28;20244;-69
2021/08/09 00:18:51;;;;;;;1999.90;999.90;;;16.90;99.90;;;;;;5013502;28;20171;-69
2021/08/09 00:21:19;;;;;;;1999.90;999.90;;;16.80;99.90;;;;;;5013427;28;20406;-69
2021/08/09 00:23:45;;;;;;;1999.90;999.90;;;16.90;99.90;;;;;;5012824;28;20185;-69
2021/08/09 00:26:11;;;;;;;1999.90;999.90;;;16.80;99.90;;;;;;5012730;28;20413;-69
2021/08/09 00:28:37;;;;;;;1999.90;999.90;;;16.80;99.90;;;;;;5012878;28;20408;-68
2021/08/09 00:31:03;;;;;;;1999.90;999.90;;;16.70;99.90;;;;;;5012711;28;20511;-69
2021/08/09 00:33:29;;;;;;;1999.90;999.90;;;16.70;99.90;;;;;;5012852;28;20615;-69
2021/08/09 00:35:54;;;;;;;1999.90;999.90;;;16.70;99.90;;;;;;5012430;28;20486;-69
2021/08/09 00:38:20;;;;;;;1999.90;999.90;;;16.70;99.90;;;;;;5012770;28;20179;-68
2021/08/09 00:40:46;;;;;;;1999.90;999.90;;;16.70;99.90;;;;;;5012702;28;20409;-69
2021/08/09 00:43:12;;;;;;;1999.90;999.90;;;16.60;99.90;;;;;;5012509;28;20166;-69
2021/08/09 00:45:38;;;;;;;1999.90;999.90;;;16.50;99.90;;;;;;5012257;28;20433;-69
2021/08/09 00:48:04;;;;;;;1999.90;999.90;;;16.50;99.90;;;;;;5012560;28;20415;-69
2021/08/09 00:50:30;;;;;;;1999.90;999.90;;;16.50;99.90;;;;;;5012608;28;20177;-69
2021/08/09 00:52:57;;;;;;;1999.90;999.90;;;16.40;99.90;;;;;;5012524;28;20485;-69
2021/08/09 00:55:23;;;;;;;1999.90;999.90;;;16.40;99.90;;;;;;5012026;28;20485;-69
2021/08/09 00:57:49;;;;;;;1999.90;999.90;;;16.40;99.90;;;;;;5012361;28;20404;-69
2021/08/09 01:00:14;;;;;;;1999.90;999.90;;;16.40;99.90;;;;;;5012377;28;20405;-69
2021/08/09 01:02:40;;;;;;;1999.90;999.90;;;16.40;99.90;;;;;;5012449;28;20228;-69
2021/08/09 01:05:08;;;;;;;1999.90;999.90;;;16.40;99.90;;;;;;5012174;28;20192;-69
2021/08/09 01:08:09;;;;;;;1999.90;999.90;;;16.30;99.90;;;;;;5012467;28;20455;-69
2021/08/09 01:10:41;;;;;;;1999.90;999.90;;;16.30;99.90;;;;;;4989240;28;20790;-69
2021/08/09 01:13:29;;;;;;;1999.90;999.90;;;16.30;99.90;;;;;;5012385;28;20511;-69
2021/08/09 01:16:01;;;;;;;1999.90;999.90;;;16.30;99.90;;;;;;5012059;28;20458;-69
2021/08/09 01:18:30;;;;;;;1999.90;999.90;;;16.20;99.90;;;;;;5012417;28;20404;-68
2021/08/09 01:20:59;;;;;;;1999.90;999.90;;;16.20;99.90;;;;;;5012383;28;20403;-69
2021/08/09 01:23:34;;;;;;;1999.90;999.90;;;16.20;99.90;;;;;;5012278;28;20411;-68
2021/08/09 01:26:23;;;;;;;1999.90;999.90;;;16.20;99.90;;;;;;5012117;28;20412;-69
2021/08/09 01:28:50;;;;;;;1999.90;999.90;;;16.20;99.90;;;;;;5011863;28;20935;-69
2021/08/09 01:31:17;;;;;;;1999.90;999.90;;;16.20;99.90;;;;;;5011984;28;20916;-69
2021/08/09 01:33:43;;;;;;;1999.90;999.90;;;16.20;99.90;;;;;;5012097;28;20462;-69
2021/08/09 01:36:10;;;;;;;1999.90;999.90;;;16.30;99.90;;;;;;5011980;28;20418;-69
2021/08/09 01:38:37;;;;;;;1999.90;999.90;;;16.30;99.90;;;;;;5012055;28;20398;-69
2021/08/09 01:41:05;;;;;;;1999.90;999.90;;;16.30;99.90;;;;;;5012158;28;20400;-69
2021/08/09 01:43:32;;;;;;;1999.90;999.90;;;16.30;99.90;;;;;;5011798;28;20407;-68
2021/08/09 01:46:01;;;;;;;1999.90;999.90;;;16.30;99.90;;;;;;5011548;28;20494;-68
2021/08/09 01:48:27;;;;;;;1999.90;999.90;;;16.30;99.90;;;;;;5011943;28;20407;-68
2021/08/09 01:50:55;;;;;;;1999.90;999.90;;;16.30;99.90;;;;;;5011931;28;20398;-68
2021/08/09 01:53:22;;;;;;;1999.90;999.90;;;16.30;99.90;;;;;;5011803;28;20451;-69
2021/08/09 01:55:48;;;;;;;1999.90;999.90;;;16.30;99.90;;;;;;5011482;28;20461;-68
2021/08/09 01:58:14;;;;;;;1999.90;999.90;;;16.30;99.90;;;;;;5011807;28;20435;-69
2021/08/09 02:00:40;;;;;;;1999.90;999.90;;;16.30;99.90;;;;;;5011806;28;20443;-69
2021/08/09 02:03:06;;;;;;;1999.90;999.90;;;16.30;99.90;;;;;;5011867;28;20439;-68
2021/08/09 02:05:31;;;;;;;1999.90;999.90;;;16.30;99.90;;;;;;5011403;28;20216;-69
2021/08/09 02:07:58;;;;;;;1999.90;999.90;;;16.40;99.90;;;;;;5011804;28;20177;-68
2021/08/09 02:10:29;;;;;;;1999.90;999.90;;;16.40;99.90;;;;;;5011673;28;20169;-68
2021/08/09 02:13:13;;;;;;;1999.90;999.90;;;16.30;99.90;;;;;;5011598;28;20412;-68
2021/08/09 02:15:54;;;;;;;1999.90;999.90;;;16.30;99.90;;;;;;5013726;28;20462;-69
2021/08/09 02:18:48;;;;;;;1999.90;999.90;;;16.30;99.90;;;;;;5015538;28;20409;-69
2021/08/09 02:21:16;;;;;;;1999.90;999.90;;;16.30;99.90;;;;;;4984298;28;20425;-69
2021/08/09 02:23:52;;;;;;;1999.90;999.90;;;16.20;99.90;;;;;;5014951;28;20425;-69
2021/08/09 02:26:34;;;;;;;1999.90;999.90;;;16.10;99.90;;;;;;5015059;28;20436;-68
2021/08/09 02:29:23;;;;;;;1999.90;999.90;;;16.10;99.90;;;;;;5014956;28;20413;-69
2021/08/09 02:31:50;;;;;;;1999.90;999.90;;;16.10;99.90;;;;;;5014868;28;20431;-69
2021/08/09 02:34:19;;;;;;;1999.90;999.90;;;16.10;99.90;;;;;;5014475;28;20458;-68
2021/08/09 02:36:45;;;;;;;1999.90;999.90;;;16.00;99.90;;;;;;5014820;28;20404;-69
2021/08/09 02:39:12;;;;;;;1999.90;999.90;;;16.00;99.90;;;;;;5014865;28;20418;-69
2021/08/09 02:41:38;;;;;;;1999.90;999.90;;;16.00;99.90;;;;;;5014789;28;20833;-68
2021/08/09 02:44:05;;;;;;;1999.90;999.90;;;16.00;99.90;;;;;;5014237;28;20430;-69
2021/08/09 02:46:32;;;;;;;1999.90;999.90;;;16.00;99.90;;;;;;5014677;28;20411;-69
2021/08/09 02:48:59;;;;;;;1999.90;999.90;;;16.00;99.90;;;;;;5014541;28;20503;-69
2021/08/09 02:51:25;;;;;;;1999.90;999.90;;;15.90;99.90;;;;;;5014545;28;20956;-69
2021/08/09 02:53:51;;;;;;;1999.90;999.90;;;15.90;99.90;;;;;;5014213;28;20457;-69
2021/08/09 02:56:22;;;;;;;1999.90;999.90;;;15.90;99.90;;;;;;5014388;28;20463;-68
2021/08/09 02:58:48;;;;;;;1999.90;999.90;;;15.90;99.90;;;;;;5014480;28;20388;-69
2021/08/09 03:01:16;;;;;;;1999.90;999.90;;;15.90;99.90;;;;;;5014439;28;20490;-69
2021/08/09 03:03:43;;;;;;;1999.90;999.90;;;15.90;99.90;;;;;;5014157;28;20435;-68
2021/08/09 03:06:11;;;;;;;1999.90;999.90;;;15.90;99.90;;;;;;5014674;28;20423;-69
2021/08/09 03:08:36;;;;;;;1999.90;999.90;;;16.00;99.90;;;;;;5015608;28;20412;-68
2021/08/09 03:11:02;;;;;;;1999.90;999.90;;;16.00;99.90;;;;;;5015498;28;20416;-68
2021/08/09 03:13:28;;;;;;;1999.90;999.90;;;16.00;99.90;;;;;;5015358;28;20173;-68
2021/08/09 03:15:53;;;;;;;1999.90;999.90;;;15.90;99.90;;;;;;5014955;28;20204;-68
2021/08/09 03:18:19;;;;;;;1999.90;999.90;;;16.00;99.90;;;;;;5015456;28;20173;-68
2021/08/09 03:20:45;;;;;;;1999.90;999.90;;;16.00;99.90;;;;;;5015474;28;20253;-69
2021/08/09 03:23:10;;;;;;;1999.90;999.90;;;16.00;99.90;;;;;;5015066;28;20169;-68
2021/08/09 03:25:39;;;;;;;1999.90;999.90;;;16.00;99.90;;;;;;5014066;28;20197;-68
2021/08/09 03:28:06;;;;;;;1999.90;999.90;;;16.00;99.90;;;;;;5014878;28;20175;-68
2021/08/09 03:30:32;;;;;;;1999.90;999.90;;;16.00;99.90;;;;;;5021794;28;20430;-69
2021/08/09 03:32:58;;;;;;;1999.90;999.90;;;16.10;99.90;;;;;;5026855;28;20468;-68
2021/08/09 03:35:24;;;;;;;1999.90;999.90;;;16.10;99.90;;;;;;5025333;28;20459;-68
2021/08/09 03:37:50;;;;;;;1999.90;999.90;;;16.10;99.90;;;;;;5026990;28;20166;-69
2021/08/09 03:40:15;;;;;;;1999.90;999.90;;;16.10;99.90;;;;;;5026574;28;20415;-68
2021/08/09 03:42:41;;;;;;;1999.90;999.90;;;16.10;99.90;;;;;;5008724;28;20234;-68
2021/08/09 03:45:07;;;;;;;1999.90;999.90;;;16.10;99.90;;;;;;5026160;28;20189;-68
2021/08/09 03:47:33;;;;;;;1999.90;999.90;;;16.10;99.90;;;;;;5007697;28;20201;-68
2021/08/09 03:49:59;;;;;;;1999.90;999.90;;;16.10;99.90;;;;;;5008080;28;20492;-68
2021/08/09 03:52:24;;;;;;;1999.90;999.90;;;16.10;99.90;;;;;;5025917;28;20206;-67
2021/08/09 03:54:50;;;;;;;1999.90;999.90;;;16.10;99.90;;;;;;5025736;28;20214;-69
2021/08/09 03:57:16;;;;;;;1999.90;999.90;;;16.10;99.90;;;;;;5025894;28;20168;-68
2021/08/09 03:59:41;;;;;;;1999.90;999.90;;;16.10;99.90;;;;;;5026871;28;20169;-68
2021/08/09 04:02:12;;;;;;;1999.90;999.90;;;16.10;99.90;;;;;;5026213;28;20178;-68
2021/08/09 04:04:38;;;;;;;1999.90;999.90;;;16.10;99.90;;;;;;5025448;28;20560;-69
2021/08/09 04:07:04;;;;;;;1999.90;999.90;;;16.20;99.90;;;;;;5007615;28;20465;-69
2021/08/09 04:09:29;;;;;;;1999.90;999.90;;;16.20;99.90;;;;;;5026192;28;20176;-67
2021/08/09 04:11:55;;;;;;;1999.90;999.90;;;16.20;99.90;;;;;;5024845;28;20239;-68
2021/08/09 04:14:20;;;;;;;1999.90;999.90;;;16.20;99.90;;;;;;5024606;28;20202;-68
2021/08/09 04:16:46;;;;;;;1999.90;999.90;;;16.20;99.90;;;;;;5015818;28;20169;-68
2021/08/09 04:19:11;;;;;;;1999.90;999.90;;;16.20;99.90;;;;;;5014174;28;20170;-69
2021/08/09 04:21:37;;;;;;;1999.90;999.90;;;16.20;99.90;;;;;;5014130;28;20173;-68
2021/08/09 04:24:03;;;;;;;1999.90;999.90;;;16.20;99.90;;;;;;5013806;28;20192;-68
2021/08/09 04:26:29;;;;;;;1999.90;999.90;;;16.20;99.90;;;;;;5014260;28;20180;-68
2021/08/09 04:28:54;;;;;;;1999.90;999.90;;;16.20;99.90;;;;;;5014094;28;20439;-68
2021/08/09 04:31:20;;;;;;;1999.90;999.90;;;16.20;99.90;;;;;;5014088;28;20611;-68
2021/08/09 04:33:49;;;;;;;1999.90;999.90;;;16.10;99.90;;;;;;5013946;28;20563;-68
2021/08/09 04:36:15;;;;;;;1999.90;999.90;;;16.10;99.90;;;;;;5014396;28;20925;-68
2021/08/09 04:38:42;;;;;;;1999.90;999.90;;;16.10;99.90;;;;;;5013685;28;20416;-68
2021/08/09 04:41:09;;;;;;;1999.90;999.90;;;16.20;99.90;;;;;;5014009;28;20488;-68
2021/08/09 04:43:37;;;;;;;1999.90;999.90;;;16.20;99.90;;;;;;5013940;28;20394;-68
2021/08/09 04:46:04;;;;;;;1999.90;999.90;;;16.20;99.90;;;;;;5014113;28;20792;-68
2021/08/09 04:48:29;;;;;;;1999.90;999.90;;;16.20;99.90;;;;;;5014040;28;20399;-68
2021/08/09 04:50:55;;;;;;;1999.90;999.90;;;16.20;99.90;;;;;;5013860;28;20424;-68
2021/08/09 04:53:21;;;;;;;1999.90;999.90;;;16.20;99.90;;;;;;5013833;28;20221;-68
2021/08/09 04:55:46;;;;;;;1999.90;999.90;;;16.20;99.90;;;;;;4996048;28;20218;-68
2021/08/09 04:58:12;;;;;;;1999.90;999.90;;;16.30;99.90;;;;;;5013844;28;20161;-69
2021/08/09 05:00:38;;;;;;;1999.90;999.90;;;16.30;99.90;;;;;;5013912;28;20213;-68
2021/08/09 05:03:03;;;;;;;1999.90;999.90;;;16.30;99.90;;;;;;5013889;28;20242;-68
2021/08/09 05:05:29;;;;;;;1999.90;999.90;;;16.20;99.90;;;;;;5013495;28;20195;-68
2021/08/09 05:07:55;;;;;;;1999.90;999.90;;;16.20;99.90;;;;;;5013520;28;20177;-69
2021/08/09 05:10:22;;;;;;;1999.90;999.90;;;16.20;99.90;;;;;;5013554;28;20179;-68
2021/08/09 05:12:48;;;;;;;1999.90;999.90;;;16.30;99.90;;;;;;5013687;28;20482;-68
2021/08/09 05:15:13;;;;;;;1999.90;999.90;;;16.30;99.90;;;;;;5013476;28;20960;-69
2021/08/09 05:17:39;;;;;;;1999.90;999.90;;;16.30;99.90;;;;;;5013411;28;20176;-69
2021/08/09 05:20:08;;;;;;;1999.90;999.90;;;16.40;99.90;;;;;;5013469;28;20195;-69
2021/08/09 05:22:34;;;;;;;1999.90;999.90;;;16.30;99.90;;;;;;5013387;28;20639;-68
2021/08/09 05:25:03;;;;;;;1999.90;999.90;;;16.30;99.90;;;;;;5012845;28;20446;-69
2021/08/09 05:27:29;;;;;;;1999.90;999.90;;;16.30;99.90;;;;;;5012908;28;20406;-68
2021/08/09 05:29:54;;;;;;;1999.90;999.90;;;16.40;99.90;;;;;;5013667;28;20398;-68
2021/08/09 05:32:20;;;;;;;1999.90;999.90;;;16.40;99.90;;;;;;5013221;28;20189;-67
2021/08/09 05:34:46;;;;;;;1999.90;999.90;;;16.40;99.90;;;;;;5013124;28;20193;-68
2021/08/09 05:37:15;;;;;;;1999.90;999.90;;;16.40;99.90;;;;;;5013862;28;20250;-68
2021/08/09 05:39:41;;;;;;;1999.90;999.90;;;16.40;99.90;;;;;;5013438;28;21149;-68
2021/08/09 05:42:08;;;;;;;1999.90;999.90;;;16.40;99.90;;;;;;5014096;28;20404;-68
2021/08/09 05:44:33;;;;;;;1999.90;999.90;;;16.50;99.90;;;;;;5013552;28;20456;-68
2021/08/09 05:46:59;;;;;;;1999.90;999.90;;;16.50;99.90;;;;;;5014109;28;20447;-68
2021/08/09 05:49:25;;;;;;;1999.90;999.90;;;16.60;99.90;;;;;;5014800;28;20173;-68
2021/08/09 05:51:51;;;;;;;1999.90;999.90;;;16.60;99.90;;;;;;5017276;28;20907;-68
2021/08/09 05:54:16;;;;;;;1999.90;999.90;;;16.60;99.90;;;;;;5016289;28;20242;-68
2021/08/09 05:56:42;;;;;;;1999.90;999.90;;;16.70;99.90;;;;;;5016683;28;20171;-68
2021/08/09 05:59:07;;;;;;;1999.90;999.90;;;16.70;99.90;;;;;;5016697;28;20171;-68
2021/08/09 06:01:33;;;;;;;1999.90;999.90;;;16.70;99.90;;;;;;5016499;28;20172;-68
2021/08/09 06:03:59;;;;;;;1999.90;999.90;;;16.60;99.90;;;;;;5016491;28;20194;-68
2021/08/09 06:06:25;;;;;;;1999.90;999.90;;;16.70;99.90;;;;;;5017132;28;20413;-68
2021/08/09 06:08:51;;;;;;;1999.90;999.90;;;16.80;99.90;;;;;;5016545;28;20441;-68
2021/08/09 06:11:17;;;;;;;1999.90;999.90;;;16.80;99.90;;;;;;5016795;28;20400;-68
2021/08/09 06:13:43;;;;;;;1999.90;999.90;;;16.90;99.90;;;;;;5016610;28;20668;-68
2021/08/09 06:16:09;;;;;;;1999.90;999.90;;;17.00;99.90;;;;;;5016377;28;20456;-68
2021/08/09 06:18:36;;;;;;;1999.90;999.90;;;17.00;99.90;;;;;;5016356;28;20402;-68
2021/08/09 06:21:02;;;;;;;1999.90;999.90;;;17.10;99.90;;;;;;5016227;28;20212;-68
2021/08/09 06:23:28;;;;;;;1999.90;999.90;;;17.10;99.90;;;;;;5016266;28;20424;-68
2021/08/09 06:25:54;;;;;;;1999.90;999.90;;;17.10;99.90;;;;;;5016072;28;20799;-68
2021/08/09 06:28:21;;;;;;;1999.90;999.90;;;17.20;99.90;;;;;;5016699;28;20241;-68
2021/08/09 06:30:47;;;;;;;1999.90;999.90;;;17.20;99.90;;;;;;5016022;28;20453;-68
2021/08/09 06:33:13;;;;;;;1999.90;999.90;;;17.30;99.90;;;;;;5015793;28;20823;-68
2021/08/09 06:35:39;;;;;;;1999.90;999.90;;;17.30;99.90;;;;;;5015400;28;20927;-68
2021/08/09 06:38:05;;;;;;;1999.90;999.90;;;17.40;99.90;;;;;;5015485;28;20431;-68
2021/08/09 06:40:32;;;;;;;1999.90;999.90;;;17.50;99.90;;;;;;5015436;28;20221;-68
2021/08/09 06:42:57;;;;;;;1999.90;999.90;;;17.40;99.90;;;;;;5015700;28;20406;-68
2021/08/09 06:45:23;;;;;;;1999.90;999.90;;;17.50;99.90;;;;;;5015395;28;20779;-68
2021/08/09 06:47:49;;;;;;;1999.90;999.90;;;17.60;99.90;;;;;;5015264;28;20165;-68
2021/08/09 06:50:14;;;;;;;1999.90;999.90;;;17.70;99.90;;;;;;5015485;28;20537;-68
2021/08/09 06:52:40;;;;;;;1999.90;999.90;;;17.80;99.90;;;;;;5015312;28;20179;-68
2021/08/09 06:55:07;;;;;;;1999.90;999.90;;;17.90;99.90;;;;;;5014988;28;20772;-68
2021/08/09 06:57:33;;;;;;;1999.90;999.90;;;18.00;99.90;;;;;;5015212;28;20166;-68
2021/08/09 06:59:58;;;;;;;1999.90;999.90;;;18.20;99.90;;;;;;5014835;28;20471;-68
2021/08/09 07:02:25;;;;;;;1999.90;999.90;;;18.30;99.90;;;;;;5015279;28;20404;-68
2021/08/09 07:04:51;;;;;;;1999.90;999.90;;;18.40;99.90;;;;;;5014910;28;20556;-68
2021/08/09 07:07:16;;;;;;;1999.90;999.90;;;18.50;99.90;;;;;;5015200;28;20416;-68
2021/08/09 07:09:42;;;;;;;1999.90;999.90;;;18.60;99.90;;;;;;5014843;28;20414;-68
2021/08/09 07:12:09;;;;;;;1999.90;999.90;;;18.60;99.90;;;;;;5015075;28;20263;-68
2021/08/09 07:14:35;;;;;;;1999.90;999.90;;;18.70;99.90;;;;;;5014539;28;20205;-68
2021/08/09 07:17:01;;;;;;;1999.90;999.90;;;18.80;99.90;;;;;;5015675;28;20415;-68
2021/08/09 07:19:27;;;;;;;1999.90;999.90;;;19.00;99.90;;;;;;5015397;28;20906;-69
2021/08/09 07:21:52;;;;;;;1999.90;999.90;;;19.20;99.90;;;;;;5015700;28;20600;-68
2021/08/09 07:24:18;;;;;;;1999.90;999.90;;;19.40;99.90;;;;;;5014861;28;20191;-69
2021/08/09 07:26:44;;;;;;;1999.90;999.90;;;19.60;99.90;;;;;;5015128;28;20667;-68
2021/08/09 07:29:09;;;;;;;1999.90;999.90;;;19.70;99.90;;;;;;5015382;28;20203;-69
2021/08/09 07:31:35;;;;;;;1999.90;999.90;;;19.80;99.90;;;;;;5015032;28;20190;-69
2021/08/09 07:34:01;;;;;;;1999.90;999.90;;;19.80;99.90;;;;;;5014564;28;20193;-69
2021/08/09 07:36:26;;;;;;;1999.90;999.90;;;19.90;99.90;;;;;;5014579;28;20197;-69
2021/08/09 07:38:52;;;;;;;1999.90;999.90;;;19.90;99.90;;;;;;5014640;28;20167;-68
2021/08/09 07:41:17;;;;;;;1999.90;999.90;;;19.90;99.90;;;;;;5014472;28;20205;-68
2021/08/09 07:43:45;;;;;;;1999.90;999.90;;;19.80;99.90;;;;;;5014631;28;20234;-68
2021/08/09 07:46:11;;;;;;;1999.90;999.90;;;19.80;99.90;;;;;;5014009;28;20175;-68
2021/08/09 07:48:37;;;;;;;1999.90;999.90;;;19.90;99.90;;;;;;5014528;28;20773;-68
2021/08/09 07:51:02;;;;;;;1999.90;999.90;;;19.80;99.90;;;;;;5014593;28;20677;-69
2021/08/09 07:53:29;;;;;;;1999.90;999.90;;;19.80;99.90;;;;;;5014469;28;20207;-68
2021/08/09 07:55:54;;;;;;;1999.90;999.90;;;19.80;99.90;;;;;;5014135;28;20195;-68
2021/08/09 07:58:20;;;;;;;1999.90;999.90;;;19.80;99.90;;;;;;5014630;28;20413;-69
2021/08/09 08:00:46;;;;;;;1999.90;999.90;;;20.00;99.90;;;;;;5014375;28;20236;-69
2021/08/09 08:03:11;;;;;;;1999.90;999.90;;;20.00;99.90;;;;;;5014165;28;20179;-69
2021/08/09 08:05:38;;;;;;;1999.90;999.90;;;20.20;99.90;;;;;;5013889;28;20208;-68
2021/08/09 08:08:05;;;;;;;1999.90;999.90;;;20.30;99.90;;;;;;5014566;28;20172;-68
2021/08/09 08:10:30;;;;;;;1999.90;999.90;;;20.40;99.90;;;;;;5014380;28;20423;-68
2021/08/09 08:12:56;;;;;;;1999.90;999.90;;;20.40;99.90;;;;;;5013373;28;20410;-69
2021/08/09 08:15:22;;;;;;;1999.90;999.90;;;20.50;99.90;;;;;;5013069;28;20214;-68
2021/08/09 08:17:47;;;;;;;1999.90;999.90;;;20.60;99.90;;;;;;5013327;28;20415;-69
2021/08/09 08:20:14;;;;;;;1999.90;999.90;;;20.80;99.90;;;;;;5013282;28;20174;-68
2021/08/09 08:22:40;;;;;;;1999.90;999.90;;;20.80;99.90;;;;;;5013884;28;20168;-68
2021/08/09 08:25:06;;;;;;;1999.90;999.90;;;20.80;99.90;;;;;;5013315;28;20802;-69
2021/08/09 08:27:32;;;;;;;1999.90;999.90;;;20.90;99.90;;;;;;5013572;28;20495;-69
2021/08/09 08:29:58;;;;;;;1999.90;999.90;;;21.00;99.90;;;;;;5013422;28;20435;-69
2021/08/09 08:32:23;;;;;;;1999.90;999.90;;;20.90;99.90;;;;;;5013453;28;20613;-69
2021/08/09 08:34:49;;;;;;;1999.90;999.90;;;21.10;99.90;;;;;;5012968;28;20205;-69
2021/08/09 08:37:15;;;;;;;1999.90;999.90;;;21.10;99.90;;;;;;5013275;28;20762;-69
2021/08/09 08:39:41;;;;;;;1999.90;999.90;;;21.20;99.90;;;;;;5012973;28;20168;-69
2021/08/09 08:42:06;;;;;;;1999.90;999.90;;;21.30;99.90;;;;;;5012633;28;20811;-69
2021/08/09 08:44:32;;;;;;;1999.90;999.90;;;21.40;99.90;;;;;;5012370;28;20268;-68
2021/08/09 08:46:58;;;;;;;1999.90;999.90;;;21.50;99.90;;;;;;5012493;28;20170;-69
2021/08/09 08:49:26;;;;;;;1999.90;999.90;;;21.40;99.90;;;;;;5012422;28;20165;-69
2021/08/09 08:51:51;;;;;;;1999.90;999.90;;;21.50;99.90;;;;;;5007175;28;20487;-69
2021/08/09 08:54:18;;;;;;;1999.90;999.90;;;21.60;99.90;;;;;;5010754;28;20507;-70
2021/08/09 08:56:45;;;;;;;1999.90;999.90;;;21.70;99.90;;;;;;5011325;28;20639;-69
2021/08/09 08:59:18;;;;;;;1999.90;999.90;;;22.00;99.90;;;;;;5010713;28;20424;-69
2021/08/09 09:01:49;;;;;;;1999.90;999.90;;;22.20;99.90;;;;;;5010668;28;20463;-69
2021/08/09 09:04:28;;;;;;;1999.90;999.90;;;22.20;99.90;;;;;;5010280;28;20517;-69
2021/08/09 09:07:00;;;;;;;1999.90;999.90;;;22.10;99.90;;;;;;5010744;28;20968;-69
2021/08/09 09:09:27;;;;;;;1999.90;999.90;;;22.00;99.90;;;;;;5009462;28;20408;-68
2021/08/09 09:11:53;;;;;;;1999.90;999.90;;;21.80;99.90;;;;;;5011849;28;20408;-68
2021/08/09 09:14:30;;;;;;;1999.90;999.90;;;21.70;99.90;;;;;;5010108;28;20942;-68
2021/08/09 09:16:57;;;;;;;1999.90;999.90;;;21.70;99.90;;;;;;5010805;28;20162;-68
2021/08/09 09:19:44;;;;;;;1999.90;999.90;;;21.60;99.90;;;;;;5011442;28;20410;-68
2021/08/09 09:22:20;;;;;;;1999.90;999.90;;;21.50;99.90;;;;;;5010962;28;20849;-68
2021/08/09 09:24:49;;;;;;;1999.90;999.90;;;21.50;99.90;;;;;;5013412;28;20439;-69
2021/08/09 09:27:29;;;;;;;1999.90;999.90;;;21.50;99.90;;;;;;5014205;28;20420;-68
2021/08/09 09:29:55;;;;;;;1999.90;999.90;;;21.50;99.90;;;;;;5014334;28;20763;-68
2021/08/09 09:32:23;;;;;;;1999.90;999.90;;;21.40;99.90;;;;;;5014024;28;20439;-68
2021/08/09 09:34:57;;;;;;;1999.90;999.90;;;21.40;99.90;;;;;;5014217;28;20213;-68
2021/08/09 09:37:27;;;;;;;1999.90;999.90;;;21.50;99.90;;;;;;5014922;28;20818;-70
2021/08/09 09:39:53;;;;;;;1999.90;999.90;;;21.40;99.90;;;;;;5014615;28;20376;-68
2021/08/09 09:42:19;;;;;;;1999.90;999.90;;;21.40;99.90;;;;;;5013971;28;20789;-68
2021/08/09 09:44:45;;;;;;;1999.90;999.90;;;21.40;99.90;;;;;;5014377;28;20431;-67
2021/08/09 09:47:28;;;;;;;1999.90;999.90;;;21.40;99.90;;;;;;5014461;28;20164;-68
2021/08/09 09:50:00;;;;;;;1999.90;999.90;;;21.50;99.90;;;;;;5013412;28;20165;-70
2021/08/09 09:52:47;;;;;;;1999.90;999.90;;;21.60;99.90;;;;;;5013549;28;20915;-69
2021/08/09 09:55:15;;;;;;;1999.90;999.90;;;21.70;99.90;;;;;;5013910;28;21019;-70
2021/08/09 09:57:42;;;;;;;1999.90;999.90;;;21.90;99.90;;;;;;5014562;28;20413;-70
2021/08/09 10:00:13;;;;;;;1999.90;999.90;;;22.00;99.90;;;;;;5014540;28;20448;-69
2021/08/09 10:02:40;;;;;;;1999.90;999.90;;;22.10;99.90;;;;;;5014368;28;20400;-69
2021/08/09 10:05:06;;;;;;;1999.90;999.90;;;22.20;99.90;;;;;;5013261;28;20431;-70
2021/08/09 10:07:35;;;;;;;1999.90;999.90;;;22.30;99.90;;;;;;5008300;28;20417;-70
2021/08/09 10:10:01;;;;;;;1999.90;999.90;;;22.40;99.90;;;;;;5011725;28;20808;-71
2021/08/09 10:12:30;;;;;;;1999.90;999.90;;;22.40;99.90;;;;;;5012988;28;20797;-70
2021/08/09 10:14:56;;;;;;;1999.90;999.90;;;22.50;99.90;;;;;;5012693;28;21157;-70
2021/08/09 10:17:23;;;;;;;1999.90;999.90;;;22.50;99.90;;;;;;5012482;28;20433;-71
2021/08/09 10:19:51;;;;;;;1999.90;999.90;;;22.50;99.90;;;;;;5013089;28;20422;-70
2021/08/09 10:22:21;;;;;;;1999.90;999.90;;;22.40;99.90;;;;;;4995663;28;20424;-68
2021/08/09 10:24:50;;;;;;;1999.90;999.90;;;22.40;99.90;;;;;;5009871;28;20425;-69
2021/08/09 10:27:17;;;;;;;1999.90;999.90;;;22.40;99.90;;;;;;5012587;28;20416;-69
2021/08/09 10:30:01;;;;;;;1999.90;999.90;;;22.40;99.90;;;;;;5013313;28;20415;-70
2021/08/09 10:32:26;;;;;;;1999.90;999.90;;;22.50;99.90;;;;;;5011670;28;20791;-71
2021/08/09 10:34:52;;;;;;;1999.90;999.90;;;22.70;99.90;;;;;;5012296;28;20491;-69
2021/08/09 10:37:20;;;;;;;1999.90;999.90;;;22.80;99.90;;;;;;5014923;28;20511;-69
2021/08/09 10:39:46;;;;;;;1999.90;999.90;;;22.80;99.90;;;;;;5012499;28;20185;-69
2021/08/09 10:42:31;;;;;;;1999.90;999.90;;;22.90;99.90;;;;;;5012907;28;20429;-68
2021/08/09 10:44:58;;;;;;;1999.90;999.90;;;22.70;99.90;;;;;;5013783;28;20198;-67
2021/08/09 10:47:46;;;;;;;1999.90;999.90;;;22.50;99.90;;;;;;5012931;28;20498;-69
2021/08/09 10:50:42;;;;;;;1999.90;999.90;;;22.40;99.90;;;;;;5012932;28;20408;-69
2021/08/09 10:53:26;;;;;;;1999.90;999.90;;;22.30;99.90;;;;;;5011343;28;20418;-68
2021/08/09 10:55:58;;;;;;;1999.90;999.90;;;22.30;99.90;;;;;;5012031;28;20459;-68
2021/08/09 10:58:42;;;;;;;1999.90;999.90;;;22.60;99.90;;;;;;5012753;28;20373;-68
2021/08/09 11:01:09;;;;;;;1999.90;999.90;;;22.90;99.90;;;;;;5011158;28;20959;-69
2021/08/09 11:03:54;;;;;;;1999.90;999.90;;;22.90;99.90;;;;;;5012311;28;20376;-68
2021/08/09 11:06:55;;;;;;;1999.90;999.90;;;22.80;99.90;;;;;;5012970;28;20410;-69
2021/08/09 11:09:30;;;;;;;1999.90;999.90;;;22.70;99.90;;;;;;5013499;28;20406;-68
2021/08/09 11:12:24;;;;;;;1999.90;999.90;;;22.60;99.90;;;;;;5013331;28;20981;-67
2021/08/09 11:15:10;;;;;;;1999.90;999.90;;;22.50;99.90;;;;;;5012816;28;20510;-68
2021/08/09 11:17:38;;;;;;;1999.90;999.90;;;22.40;99.90;;;;;;5013334;28;20377;-68
2021/08/09 11:20:15;;;;;;;1999.90;999.90;;;22.30;99.90;;;;;;5013446;28;20740;-67
2021/08/09 11:22:43;;;;;;;1999.90;999.90;;;22.50;99.90;;;;;;5013259;28;20410;-69
2021/08/09 11:25:25;;;;;;;1999.90;999.90;;;22.40;99.90;;;;;;5012578;28;20508;-68
2021/08/09 11:28:03;;;;;;;1999.90;999.90;;;22.60;99.90;;;;;;5013583;28;20420;-68
2021/08/09 11:30:40;;;;;;;1999.90;999.90;;;22.70;99.90;;;;;;4994949;28;20466;-68
2021/08/09 11:33:17;;;;;;;1999.90;999.90;;;22.70;99.90;;;;;;5006305;28;20420;-68
2021/08/09 11:35:44;;;;;;;1999.90;999.90;;;22.80;99.90;;;;;;5014638;28;20835;-68
2021/08/09 11:38:10;;;;;;;1999.90;999.90;;;22.90;99.90;;;;;;5014872;28;20502;-68
2021/08/09 11:40:47;;;;;;;1999.90;999.90;;;22.80;99.90;;;;;;5013907;28;20429;-68
2021/08/09 11:43:26;;;;;;;1999.90;999.90;;;22.80;99.90;;;;;;5012332;28;20178;-67
2021/08/09 11:46:01;;;;;;;1999.90;999.90;;;23.00;99.90;;;;;;5013066;28;21232;-67
2021/08/09 11:48:33;;;;;;;1999.90;999.90;;;23.00;99.90;;;;;;5009953;28;20413;-67
2021/08/09 11:51:10;;;;;;;1999.90;999.90;;;23.00;99.90;;;;;;5013599;28;21169;-68
2021/08/09 11:53:38;;;;;;;1999.90;999.90;;;22.80;99.90;;;;;;5011786;28;20906;-68
2021/08/09 11:56:31;;;;;;;1999.90;999.90;;;23.00;99.90;;;;;;5010990;28;20466;-68
2021/08/09 11:58:57;;;;;;;1999.90;999.90;;;23.00;99.90;;;;;;5011810;28;20398;-68
2021/08/09 12:01:34;;;;;;;1999.90;999.90;;;23.20;99.90;;;;;;5012687;28;20385;-68
2021/08/09 12:04:19;;;;;;;1999.90;999.90;;;23.60;99.90;;;;;;5012673;28;20405;-68
2021/08/09 12:06:52;;;;;;;1999.90;999.90;;;23.70;99.90;;;;;;5012650;28;20463;-68